.
WxDataArchive / Data Records for 2010-12-13
2010-12-12 December 2010 2010-12-14

Data Records for Monday, 13 December 2010

Time	Temp	Chill	HIndex	Humid	Dewpt	 Wind 	HiWind	WindDir	Rain 	Barom 
-----	----	-----	------	-----	-----	------	------	-------	-----	----- 
00:00	18.9	18.9	18.9	77	12.9	1	3	292	0.00	29.689 
00:05	18.9	18.9	18.9	79	13.5	1	3	270	0.00	29.689 
00:10	18.9	18.9	18.9	80	13.8	1	3	292	0.00	29.689 
00:15	18.8	18.8	18.8	81	14.0	1	4	338	0.00	29.693 
00:20	18.8	18.8	18.8	81	14.0	1	2	338	0.00	29.693 
00:25	18.6	18.6	18.6	81	13.8	1	5	270	0.00	29.693 
00:30	18.6	18.6	18.6	81	13.8	1	4	270	0.00	29.694 
00:35	18.6	18.6	18.6	81	13.8	1	6	338	0.00	29.694 
00:40	18.6	18.6	18.6	79	13.2	2	7	0	0.00	29.694 
00:45	18.8	18.8	18.8	78	13.1	2	7	0	0.00	29.693 
00:50	18.8	18.8	18.8	78	13.1	2	6	338	0.00	29.693 
00:55	18.8	18.8	18.8	77	12.8	2	5	315	0.00	29.693 
01:00	18.9	18.9	18.9	77	12.9	1	3	315	0.00	29.697 
01:05	18.9	18.9	18.9	77	12.9	1	5	338	0.00	29.697 
01:10	18.9	18.9	18.9	77	12.9	2	6	0	0.00	29.697 
01:15	18.9	18.9	18.9	76	12.6	1	3	338	0.00	29.698 
01:20	18.9	18.9	18.9	76	12.6	2	9	315	0.00	29.698 
01:25	18.9	18.9	18.9	75	12.3	1	6	22	0.00	29.698 
01:30	18.9	18.9	18.9	75	12.3	2	6	338	0.00	29.702 
01:35	18.9	18.9	18.9	74	12.0	2	6	0	0.00	29.702 
01:40	18.9	18.9	18.9	74	12.0	2	7	292	0.00	29.702 
01:45	18.9	18.9	18.9	74	12.0	2	7	0	0.00	29.706 
01:50	18.9	18.9	18.9	74	12.0	2	6	292	0.00	29.706 
01:55	18.9	18.9	18.9	73	11.7	2	7	338	0.00	29.706 
02:00	18.9	18.9	18.9	73	11.7	1	9	315	0.00	29.708 
02:05	18.9	18.9	18.9	73	11.7	2	5	338	0.00	29.708 
02:10	18.9	18.9	18.9	74	12.0	1	4	0	0.00	29.708 
02:15	18.9	18.9	18.9	74	12.0	1	5	22	0.00	29.712 
02:20	18.9	18.9	18.9	75	12.3	1	5	315	0.00	29.712 
02:25	18.9	18.9	18.9	75	12.3	1	4	338	0.00	29.712 
02:30	18.9	18.9	18.9	75	12.3	1	5	315	0.00	29.715 
02:35	18.9	18.9	18.9	75	12.3	1	5	315	0.00	29.715 
02:40	18.9	18.9	18.9	75	12.3	2	5	315	0.00	29.715 
02:45	19.1	19.1	19.1	74	12.2	2	5	22	0.00	29.723 
02:50	19.1	19.1	19.1	74	12.2	1	4	315	0.00	29.723 
02:55	19.2	19.2	19.2	74	12.3	1	4	0	0.00	29.723 
03:00	19.2	19.2	19.2	74	12.3	1	3	338	0.00	29.728 
03:05	19.2	19.2	19.2	74	12.3	1	4	22	0.00	29.728 
03:10	19.2	19.2	19.2	75	12.6	1	3	338	0.00	29.728 
03:15	19.2	19.2	19.2	77	13.2	2	6	270	0.00	29.737 
03:20	19.2	19.2	19.2	78	13.5	2	6	338	0.00	29.737 
03:25	19.1	19.1	19.1	78	13.4	1	4	315	0.00	29.737 
03:30	19.1	19.1	19.1	78	13.4	2	5	292	0.00	29.741 
03:35	19.1	19.1	19.1	77	13.1	2	6	270	0.00	29.741 
03:40	19.1	19.1	19.1	77	13.1	2	5	338	0.00	29.741 
03:45	19.1	19.1	19.1	77	13.1	2	7	338	0.00	29.748 
03:50	18.9	18.9	18.9	77	12.9	2	5	338	0.00	29.748 
03:55	18.9	18.9	18.9	77	12.9	2	7	338	0.00	29.748 
04:00	18.8	18.8	18.8	76	12.5	3	7	338	0.00	29.754 
04:05	18.8	18.8	18.8	76	12.5	2	5	338	0.00	29.754 
04:10	18.8	18.8	18.8	76	12.5	2	6	292	0.00	29.754 
04:15	18.8	18.8	18.8	75	12.2	2	5	0	0.00	29.757 
04:20	18.8	18.8	18.8	74	11.9	2	6	315	0.00	29.757 
04:25	18.9	18.9	18.9	74	12.0	2	5	338	0.00	29.757 
04:30	18.8	18.8	18.8	74	11.9	3	10	315	0.00	29.762 
04:35	18.8	18.8	18.8	74	11.9	3	6	338	0.00	29.762 
04:40	18.8	18.8	18.8	74	11.9	2	7	338	0.00	29.762 
04:45	18.8	18.8	18.8	74	11.9	3	9	270	0.00	29.768 
04:50	18.6	18.6	18.6	74	11.7	1	4	315	0.00	29.768 
04:55	18.6	18.6	18.6	74	11.7	2	5	338	0.00	29.768 
05:00	18.6	18.6	18.6	74	11.7	2	7	315	0.00	29.774 
05:05	18.4	18.4	18.4	74	11.5	2	7	270	0.00	29.774 
05:10	18.4	18.4	18.4	73	11.2	2	4	338	0.00	29.774 
05:15	18.4	18.4	18.4	73	11.2	2	10	315	0.00	29.783 
05:20	18.4	18.4	18.4	72	10.9	2	5	315	0.00	29.783 
05:25	18.4	18.4	18.4	71	10.6	3	6	315	0.00	29.783 
05:30	18.3	18.3	18.3	70	10.2	2	7	315	0.00	29.790 
05:35	18.3	18.3	18.3	70	10.2	2	6	270	0.00	29.790 
05:40	18.1	18.1	18.1	70	10.0	1	3	270	0.00	29.790 
05:45	18.0	18.0	18.0	69	9.6	2	6	0	0.00	29.796 
05:50	17.8	17.8	17.8	69	9.4	2	5	270	0.00	29.796 
05:55	17.7	17.7	17.7	70	9.6	2	6	315	0.00	29.796 
06:00	17.5	17.5	17.5	70	9.4	1	5	315	0.00	29.804 
06:05	17.3	17.3	17.3	70	9.2	1	6	292	0.00	29.804 
06:10	17.2	17.2	17.2	70	9.1	1	4	270	0.00	29.804 
06:15	17.2	17.2	17.2	70	9.1	1	5	248	0.00	29.811 
06:20	17.2	17.2	17.2	69	8.8	1	4	315	0.00	29.811 
06:25	17.2	17.2	17.2	69	8.8	2	5	270	0.00	29.811 
06:30	17.0	17.0	17.0	69	8.6	1	3	0	0.00	29.822 
06:35	17.0	17.0	17.0	69	8.6	1	4	270	0.00	29.822 
06:40	16.7	16.7	16.7	69	8.3	0	2	270	0.00	29.822 
06:45	16.7	16.7	16.7	69	8.3	2	6	270	0.00	29.826 
06:50	16.9	16.9	16.9	69	8.5	2	5	292	0.00	29.826 
06:55	16.9	16.9	16.9	68	8.2	2	6	292	0.00	29.826 
07:00	16.7	16.7	16.7	67	7.7	1	3	270	0.00	29.838 
07:05	16.7	16.7	16.7	67	7.7	1	4	338	0.00	29.838 
07:10	16.7	16.7	16.7	66	7.3	1	5	338	0.00	29.838 
07:15	16.5	16.5	16.5	66	7.2	2	9	270	0.00	29.847 
07:20	16.5	16.5	16.5	65	6.8	2	5	338	0.00	29.847 
07:25	16.4	16.4	16.4	65	6.7	2	10	338	0.00	29.847 
07:30	16.2	16.2	16.2	65	6.5	2	5	270	0.00	29.859 
07:35	16.2	16.2	16.2	65	6.5	2	4	248	0.00	29.859 
07:40	16.1	16.1	16.1	65	6.4	2	7	338	0.00	29.859 
07:45	16.1	16.1	16.1	64	6.1	3	7	292	0.00	29.861 
07:50	15.9	15.9	15.9	64	5.9	2	6	338	0.00	29.861 
07:55	15.7	15.7	15.7	64	5.7	2	7	315	0.00	29.861 
08:00	15.6	15.6	15.6	64	5.6	2	5	315	0.00	29.866 
08:05	15.6	15.6	15.6	65	6.0	1	4	338	0.00	29.866 
08:10	15.4	15.4	15.4	65	5.8	2	6	270	0.00	29.866 
08:15	15.4	15.4	15.4	65	5.8	2	5	315	0.00	29.877 
08:20	15.4	15.4	15.4	64	5.4	3	9	270	0.00	29.877 
08:25	15.4	15.4	15.4	64	5.4	2	6	270	0.00	29.877 
08:30	15.2	15.2	15.2	64	5.2	3	9	270	0.00	29.884 
08:35	15.2	15.2	15.2	64	5.2	3	6	315	0.00	29.884 
08:40	15.2	15.2	15.2	63	4.9	3	9	292	0.00	29.884 
08:45	15.2	15.2	15.2	63	4.9	3	11	338	0.00	29.895 
08:50	15.2	15.2	15.2	63	4.9	3	11	338	0.00	29.895 
08:55	15.2	15.2	15.2	62	4.6	2	6	338	0.00	29.895 
09:00	15.2	15.2	15.2	63	4.9	2	5	315	0.00	29.899 
09:05	15.2	15.2	15.2	63	4.9	3	6	315	0.00	29.899 
09:10	15.2	15.2	15.2	63	4.9	3	9	338	0.00	29.899 
09:15	15.1	15.1	15.1	63	4.8	3	7	292	0.00	29.906 
09:20	15.1	8.6	15.1	63	4.8	4	10	315	0.00	29.906 
09:25	15.1	15.1	15.1	63	4.8	1	6	315	0.00	29.906 
09:30	15.1	15.1	15.1	63	4.8	2	6	270	0.00	29.912 
09:35	15.1	15.1	15.1	62	4.5	2	9	292	0.00	29.912 
09:40	15.1	15.1	15.1	62	4.5	3	7	315	0.00	29.912 
09:45	15.1	15.1	15.1	61	4.1	3	7	315	0.00	29.920 
09:50	15.1	15.1	15.1	61	4.1	3	7	338	0.00	29.920 
09:55	15.1	15.1	15.1	61	4.1	3	13	315	0.00	29.920 
10:00	15.1	15.1	15.1	60	3.7	3	10	0	0.00	29.926 
10:05	15.2	15.2	15.2	60	3.8	3	10	338	0.00	29.926 
10:10	15.2	15.2	15.2	60	3.8	3	7	338	0.00	29.926 
10:15	15.4	15.4	15.4	59	3.7	2	10	315	0.00	29.928 
10:20	15.4	15.4	15.4	59	3.7	3	9	292	0.00	29.928 
10:25	15.6	15.6	15.6	59	3.9	2	5	315	0.00	29.928 
10:30	15.6	9.1	15.6	58	3.5	4	11	292	0.00	29.939 
10:35	15.6	15.6	15.6	58	3.5	2	11	338	0.00	29.939 
10:40	15.7	15.7	15.7	57	3.2	3	11	292	0.00	29.939 
10:45	15.7	15.7	15.7	57	3.2	3	7	292	0.00	29.941 
10:50	15.9	15.9	15.9	57	3.4	2	5	315	0.00	29.941 
10:55	16.1	16.1	16.1	56	3.2	3	13	315	0.00	29.941 
11:00	16.1	16.1	16.1	56	3.2	3	7	315	0.00	29.942 
11:05	16.1	16.1	16.1	56	3.2	3	7	315	0.00	29.942 
11:10	16.1	16.1	16.1	57	3.6	3	10	292	0.00	29.942 
11:15	16.2	16.2	16.2	55	2.9	3	10	338	0.00	29.942 
11:20	16.2	9.8	16.2	56	3.3	4	9	292	0.00	29.942 
11:25	16.2	9.8	16.2	56	3.3	4	9	292	0.00	29.942 
11:30	16.4	16.4	16.4	56	3.5	3	7	315	0.00	29.949 
11:35	16.7	16.7	16.7	56	3.8	2	7	315	0.00	29.949 
11:40	16.7	10.4	16.7	54	3.0	4	12	292	0.00	29.949 
11:45	16.9	16.9	16.9	54	3.2	3	9	315	0.00	29.947 
11:50	17.0	17.0	17.0	54	3.3	2	7	338	0.00	29.947 
11:55	17.0	10.7	17.0	54	3.3	4	10	338	0.00	29.947 
12:00	17.0	17.0	17.0	54	3.3	3	9	315	0.00	29.949 
12:05	17.2	11.0	17.2	53	3.0	4	12	315	0.00	29.949 
12:10	17.2	11.0	17.2	57	4.6	4	10	338	0.00	29.949 
12:15	17.3	17.3	17.3	53	3.1	3	10	338	0.00	29.950 
12:20	17.5	17.5	17.5	53	3.3	3	10	315	0.00	29.950 
12:25	17.8	17.8	17.8	53	3.6	2	7	315	0.00	29.950 
12:30	18.0	18.0	18.0	53	3.8	3	7	315	0.00	29.945 
12:35	18.0	18.0	18.0	53	3.8	3	6	292	0.00	29.945 
12:40	18.1	18.1	18.1	53	3.9	3	9	292	0.00	29.945 
12:45	18.3	18.3	18.3	52	3.7	2	7	315	0.00	29.950 
12:50	18.4	18.4	18.4	51	3.3	3	7	338	0.00	29.950 
12:55	18.6	18.6	18.6	52	3.9	2	5	292	0.00	29.950 
13:00	18.8	18.8	18.8	52	4.1	3	10	0	0.00	29.953 
13:05	18.6	12.6	18.6	51	3.5	4	9	292	0.00	29.953 
13:10	18.8	18.8	18.8	52	4.1	3	6	315	0.00	29.953 
13:15	18.9	18.9	18.9	53	4.6	2	5	292	0.00	29.953 
13:20	19.1	19.1	19.1	52	4.4	3	6	292	0.00	29.953 
13:25	19.2	19.2	19.2	52	4.5	3	9	338	0.00	29.953 
13:30	19.1	13.2	19.1	52	4.4	4	9	270	0.00	29.953 
13:35	19.1	19.1	19.1	52	4.4	3	7	315	0.00	29.953 
13:40	19.2	13.3	19.2	51	4.1	4	9	315	0.00	29.953 
13:45	19.2	19.2	19.2	51	4.1	3	11	315	0.00	29.953 
13:50	19.4	13.5	19.4	51	4.3	4	10	315	0.00	29.953 
13:55	19.4	13.5	19.4	50	3.8	4	7	292	0.00	29.953 
14:00	19.5	19.5	19.5	51	4.4	3	7	270	0.00	29.955 
14:05	19.7	19.7	19.7	51	4.5	3	7	315	0.00	29.955 
14:10	19.9	19.9	19.9	51	4.7	3	10	292	0.00	29.955 
14:15	19.9	19.9	19.9	51	4.7	3	7	270	0.00	29.962 
14:20	20.0	20.0	20.0	51	4.8	2	7	338	0.00	29.962 
14:25	20.2	20.2	20.2	49	4.1	3	7	292	0.00	29.962 
14:30	20.0	20.0	20.0	50	4.4	2	7	315	0.00	29.968 
14:35	20.2	20.2	20.2	51	5.0	2	7	315	0.00	29.968 
14:40	20.3	20.3	20.3	50	4.7	2	7	315	0.00	29.968 
14:45	20.3	20.3	20.3	49	4.2	3	9	338	0.00	29.971 
14:50	20.3	20.3	20.3	49	4.2	3	9	292	0.00	29.971 
14:55	20.2	20.2	20.2	48	3.7	3	7	338	0.00	29.971 
15:00	20.0	14.2	20.0	48	3.5	4	12	270	0.00	29.981 
15:05	20.0	20.0	20.0	47	3.0	3	6	292	0.00	29.981 
15:10	20.2	20.2	20.2	48	3.7	3	6	315	0.00	29.981 
15:15	20.2	20.2	20.2	49	4.1	2	5	338	0.00	29.985 
15:20	20.3	20.3	20.3	49	4.2	3	7	338	0.00	29.985 
15:25	20.3	20.3	20.3	49	4.2	3	11	315	0.00	29.985 
15:30	20.3	20.3	20.3	48	3.8	3	10	292	0.00	29.987 
15:35	20.3	14.6	20.3	48	3.8	4	11	292	0.00	29.987 
15:40	20.3	20.3	20.3	49	4.2	2	9	292	0.00	29.987 
15:45	20.3	20.3	20.3	49	4.2	3	7	270	0.00	29.994 
15:50	20.3	20.3	20.3	49	4.2	2	6	315	0.00	29.994 
15:55	20.2	20.2	20.2	48	3.7	3	9	315	0.00	29.994 
16:00	20.2	20.2	20.2	48	3.7	3	7	338	0.00	30.002 
16:05	20.0	20.0	20.0	49	3.9	2	7	315	0.00	30.002 
16:10	20.0	20.0	20.0	50	4.4	2	7	270	0.00	30.002 
16:15	19.9	19.9	19.9	50	4.3	3	9	315	0.00	30.008 
16:20	19.9	19.9	19.9	50	4.3	3	11	292	0.00	30.008 
16:25	19.9	19.9	19.9	50	4.3	2	8	338	0.00	30.008 
16:30	19.7	19.7	19.7	50	4.1	2	6	338	0.00	30.015 
16:35	19.7	19.7	19.7	50	4.1	3	9	270	0.00	30.015 
16:40	19.7	19.7	19.7	48	3.2	2	7	338	0.00	30.015 
16:45	19.5	19.5	19.5	47	2.6	3	12	315	0.00	30.019 
16:50	19.4	19.4	19.4	47	2.5	2	5	315	0.00	30.019 
16:55	19.2	19.2	19.2	47	2.3	2	10	315	0.00	30.019 
17:00	18.9	18.9	18.9	47	2.0	2	5	338	0.00	30.028 
17:05	18.8	18.8	18.8	47	1.9	3	9	338	0.00	30.028 
17:10	18.8	18.8	18.8	48	2.4	2	8	338	0.00	30.028 
17:15	18.4	18.4	18.4	49	2.5	1	5	338	0.00	30.035 
17:20	18.3	18.3	18.3	49	2.4	1	9	248	0.00	30.035 
17:25	18.1	18.1	18.1	50	2.6	1	3	248	0.00	30.035 
17:30	18.0	18.0	18.0	50	2.5	1	3	292	0.00	30.040 
17:35	17.8	17.8	17.8	51	2.8	1	3	270	0.00	30.040 
17:40	17.7	17.7	17.7	51	2.7	1	4	292	0.00	30.040 
17:45	17.5	17.5	17.5	52	2.9	1	5	338	0.00	30.050 
17:50	17.3	17.3	17.3	53	3.1	1	5	248	0.00	30.050 
17:55	17.3	17.3	17.3	53	3.1	1	4	338	0.00	30.050 
18:00	17.3	17.3	17.3	53	3.1	1	4	292	0.00	30.056 
18:05	17.2	17.2	17.2	53	3.0	1	3	338	0.00	30.056 
18:10	17.0	17.0	17.0	53	2.9	1	4	338	0.00	30.056 
18:15	16.9	16.9	16.9	54	3.2	1	4	270	0.00	30.059 
18:20	16.7	16.7	16.7	54	3.0	0	3	315	0.00	30.059 
18:25	16.7	16.7	16.7	54	3.0	1	3	292	0.00	30.059 
18:30	16.5	16.5	16.5	55	3.2	1	3	292	0.00	30.061 
18:35	16.4	16.4	16.4	55	3.1	1	4	315	0.00	30.061 
18:40	16.4	16.4	16.4	55	3.1	1	3	292	0.00	30.061 
18:45	16.2	16.2	16.2	55	2.9	1	3	315	0.00	30.070 
18:50	16.1	16.1	16.1	56	3.2	1	7	292	0.00	30.070 
18:55	16.1	16.1	16.1	56	3.2	1	4	315	0.00	30.070 
19:00	15.9	15.9	15.9	56	3.0	1	3	270	0.00	30.073 
19:05	15.9	15.9	15.9	56	3.0	0	2	270	0.00	30.073 
19:10	15.6	15.6	15.6	57	3.1	0	1	292	0.00	30.073 
19:15	15.2	15.2	15.2	57	2.7	0	0	---	0.00	30.086 
19:20	14.8	14.8	14.8	58	2.7	0	0	---	0.00	30.086 
19:25	14.4	14.4	14.4	58	2.4	0	0	---	0.00	30.086 
19:30	14.1	14.1	14.1	59	2.4	0	0	---	0.00	30.089 
19:35	13.6	13.6	13.6	60	2.3	0	0	---	0.00	30.089 
19:40	13.3	13.3	13.3	61	2.4	0	0	---	0.00	30.089 
19:45	12.9	12.9	12.9	61	2.0	0	1	292	0.00	30.103 
19:50	12.8	12.8	12.8	62	2.3	0	1	292	0.00	30.103 
19:55	12.9	12.9	12.9	62	2.4	0	1	292	0.00	30.103 
20:00	13.1	13.1	13.1	62	2.6	0	1	292	0.00	30.108 
20:05	13.1	13.1	13.1	62	2.6	0	1	292	0.00	30.108 
20:10	13.3	13.3	13.3	62	2.7	0	1	292	0.00	30.108 
20:15	13.1	13.1	13.1	62	2.6	0	1	292	0.00	30.117 
20:20	12.9	12.9	12.9	63	2.7	0	1	292	0.00	30.117 
20:25	13.1	13.1	13.1	63	2.9	0	2	292	0.00	30.117 
20:30	13.1	13.1	13.1	63	2.9	0	3	292	0.00	30.121 
20:35	13.1	13.1	13.1	63	2.9	0	2	292	0.00	30.121 
20:40	12.9	12.9	12.9	63	2.7	0	2	292	0.00	30.121 
20:45	12.9	12.9	12.9	63	2.7	0	1	292	0.00	30.120 
20:50	12.8	12.8	12.8	64	3.0	0	2	292	0.00	30.120 
20:55	12.8	12.8	12.8	64	3.0	0	1	292	0.00	30.120 
21:00	12.6	12.6	12.6	64	2.8	0	1	292	0.00	30.123 
21:05	12.4	12.4	12.4	65	2.9	1	3	292	0.00	30.123 
21:10	12.4	12.4	12.4	64	2.6	0	1	292	0.00	30.123 
21:15	12.4	12.4	12.4	64	2.6	0	3	292	0.00	30.132 
21:20	12.4	12.4	12.4	64	2.6	0	2	292	0.00	30.132 
21:25	12.4	12.4	12.4	63	2.2	1	5	270	0.00	30.132 
21:30	12.6	12.6	12.6	63	2.4	1	3	338	0.00	30.132 
21:35	12.6	12.6	12.6	63	2.4	1	4	315	0.00	30.132 
21:40	12.6	12.6	12.6	62	2.1	1	2	315	0.00	30.132 
21:45	12.6	12.6	12.6	62	2.1	1	4	315	0.00	30.136 
21:50	12.6	12.6	12.6	62	2.1	1	4	248	0.00	30.136 
21:55	12.6	12.6	12.6	62	2.1	1	5	270	0.00	30.136 
22:00	12.6	12.6	12.6	62	2.1	1	4	292	0.00	30.138 
22:05	12.6	12.6	12.6	62	2.1	1	4	292	0.00	30.138 
22:10	12.6	12.6	12.6	62	2.1	1	5	248	0.00	30.138 
22:15	12.6	12.6	12.6	62	2.1	1	3	292	0.00	30.139 
22:20	12.4	12.4	12.4	62	1.9	1	3	292	0.00	30.139 
22:25	12.4	12.4	12.4	62	1.9	1	4	338	0.00	30.139 
22:30	12.4	12.4	12.4	62	1.9	1	3	248	0.00	30.137 
22:35	12.3	12.3	12.3	63	2.1	0	2	248	0.00	30.137 
22:40	12.1	12.1	12.1	63	2.0	1	2	248	0.00	30.137 
22:45	12.1	12.1	12.1	63	2.0	1	4	248	0.00	30.137 
22:50	12.1	12.1	12.1	64	2.3	1	3	315	0.00	30.137 
22:55	12.1	12.1	12.1	64	2.3	1	4	292	0.00	30.137 
23:00	12.1	12.1	12.1	64	2.3	1	4	270	0.00	30.138 
23:05	12.3	12.3	12.3	64	2.5	1	6	315	0.00	30.138 
23:10	12.3	12.3	12.3	64	2.5	1	5	315	0.00	30.138 
23:15	12.1	12.1	12.1	64	2.3	1	3	270	0.00	30.139 
23:20	12.1	12.1	12.1	64	2.3	1	3	270	0.00	30.139 
23:25	12.1	12.1	12.1	64	2.3	1	4	270	0.00	30.139 
23:30	12.1	12.1	12.1	64	2.3	0	2	338	0.00	30.141 
23:35	12.1	12.1	12.1	64	2.3	1	4	338	0.00	30.141 
23:40	12.1	12.1	12.1	65	2.6	1	3	270	0.00	30.141 
23:45	11.9	11.9	11.9	65	2.4	0	3	270	0.00	30.138 
23:50	11.9	11.9	11.9	65	2.4	0	3	270	0.00	30.138 
23:55	11.9	11.9	11.9	65	2.4	1	3	292	0.00	30.138 

CoCoRaHS
IN-AL-39
A2 Web Hosting
Creative Commons License
GoDaddy
search engine by freefind advanced

loaded 2018-11-13 23:48:37 • last modified 2010-11-18 10:43:29
Privacy PolicyDisclaimer
• wx.awcolley.com is powered by PmWiki v.2002016 •
• all content (unless otherwise noted) © 2018 A W Colley